createdAt,value
2019-02-25T00:00:00.819Z,6.40
2019-02-25T00:02:14.023Z,6.00
2019-02-25T00:04:18.667Z,6.00
2019-02-25T00:06:23.931Z,5.70
2019-02-25T00:08:27.867Z,5.80
2019-02-25T00:10:32.326Z,5.80
2019-02-25T00:12:36.446Z,6.00
2019-02-25T00:14:40.795Z,6.20
2019-02-25T00:16:44.782Z,6.30
2019-02-25T00:18:48.941Z,6.20
2019-02-25T00:20:52.807Z,6.00
2019-02-25T00:22:56.644Z,5.80
2019-02-25T00:25:01.369Z,5.60
2019-02-25T00:27:05.472Z,5.50
2019-02-25T00:29:09.336Z,5.40
2019-02-25T00:31:14.087Z,5.40
2019-02-25T00:33:18.432Z,5.30
2019-02-25T00:35:22.991Z,5.40
2019-02-25T00:37:28.026Z,5.40
2019-02-25T00:39:32.142Z,5.40
2019-02-25T00:41:35.963Z,5.20
2019-02-25T00:43:40.442Z,5.30
2019-02-25T00:45:44.803Z,5.40
2019-02-25T00:47:48.778Z,5.50
2019-02-25T00:49:52.923Z,5.30
2019-02-25T00:51:58.156Z,5.20
2019-02-25T00:54:03.098Z,5.00
2019-02-25T00:56:07.295Z,4.80
2019-02-25T00:58:11.559Z,5.00
2019-02-25T01:00:16.711Z,4.80
2019-02-25T01:02:21.044Z,4.80
2019-02-25T01:04:25.658Z,4.60
2019-02-25T01:06:29.818Z,4.60
2019-02-25T01:08:34.355Z,4.50
2019-02-25T01:10:38.984Z,4.60
2019-02-25T01:12:44.007Z,4.80
2019-02-25T01:14:48.395Z,5.10
2019-02-25T01:16:52.304Z,5.20
2019-02-25T01:18:56.864Z,5.20
2019-02-25T01:21:01.559Z,5.40
2019-02-25T01:23:05.771Z,5.50
2019-02-25T01:25:10.899Z,5.60
2019-02-25T01:27:15.063Z,5.60
2019-02-25T01:29:19.492Z,5.50
2019-02-25T01:31:23.403Z,5.30
2019-02-25T01:33:27.503Z,5.10
2019-02-25T01:35:31.439Z,5.00
2019-02-25T01:37:35.808Z,4.90
2019-02-25T01:39:40.176Z,5.10
2019-02-25T01:41:44.634Z,5.20
2019-02-25T01:43:49.183Z,5.30
2019-02-25T01:45:53.121Z,5.20
2019-02-25T01:47:56.947Z,5.20
2019-02-25T01:50:01.726Z,5.20
2019-02-25T01:52:06.119Z,5.10
2019-02-25T01:54:10.179Z,5.10
2019-02-25T01:56:14.652Z,5.00
2019-02-25T01:58:19.439Z,5.00
2019-02-25T02:00:23.653Z,5.00
2019-02-25T02:02:28.899Z,4.90
2019-02-25T02:04:33.679Z,5.00
2019-02-25T02:06:37.767Z,5.10
2019-02-25T02:08:41.714Z,5.10
2019-02-25T02:10:45.644Z,5.00
2019-02-25T02:12:49.770Z,5.00
2019-02-25T02:14:54.176Z,5.00
2019-02-25T02:16:58.124Z,5.10
2019-02-25T02:19:03.446Z,5.20
2019-02-25T02:21:08.060Z,5.20
2019-02-25T02:23:12.863Z,5.10
2019-02-25T02:25:17.394Z,5.00
2019-02-25T02:27:21.369Z,5.20
2019-02-25T02:29:25.954Z,5.10
2019-02-25T02:31:29.795Z,5.10
2019-02-25T02:33:34.553Z,4.90
2019-02-25T02:35:38.962Z,4.80
2019-02-25T02:37:42.875Z,4.70
2019-02-25T02:39:46.718Z,4.60
2019-02-25T02:42:25.940Z,4.70
2019-02-25T02:44:30.379Z,4.80
2019-02-25T02:46:47.302Z,4.70
2019-02-25T02:48:58.672Z,4.70
2019-02-25T02:51:03.407Z,4.80
2019-02-25T02:53:07.758Z,5.00
2019-02-25T02:55:12.262Z,4.90
2019-02-25T02:57:16.514Z,4.60
2019-02-25T02:59:20.675Z,4.60
2019-02-25T03:01:24.879Z,4.50
2019-02-25T03:03:29.563Z,4.50
2019-02-25T03:05:34.029Z,4.40
2019-02-25T03:07:38.121Z,4.40
2019-02-25T03:09:42.304Z,4.20
2019-02-25T03:11:46.764Z,3.90
2019-02-25T03:13:51.113Z,3.80
2019-02-25T03:15:55.477Z,3.70
2019-02-25T03:18:00.176Z,3.80
2019-02-25T03:20:05.772Z,3.90
2019-02-25T03:22:10.728Z,3.90
2019-02-25T03:24:14.601Z,3.50
2019-02-25T03:26:18.448Z,3.50
2019-02-25T03:28:22.955Z,3.70
2019-02-25T03:30:26.828Z,3.70
2019-02-25T03:32:31.103Z,3.70
2019-02-25T03:34:35.316Z,3.40
2019-02-25T03:36:39.279Z,3.30
2019-02-25T03:38:44.005Z,3.60
2019-02-25T03:40:48.372Z,3.70
2019-02-25T03:42:52.848Z,3.60
2019-02-25T03:44:57.226Z,3.70
2019-02-25T03:47:01.315Z,3.50
2019-02-25T03:49:06.572Z,3.40
2019-02-25T03:51:11.532Z,3.60
2019-02-25T03:53:16.023Z,3.70
2019-02-25T03:55:20.654Z,3.70
2019-02-25T03:57:25.733Z,3.60
2019-02-25T03:59:29.817Z,3.40
2019-02-25T04:01:34.267Z,3.10
2019-02-25T04:03:38.911Z,3.20
2019-02-25T04:05:43.668Z,3.40
2019-02-25T04:07:47.815Z,3.70
2019-02-25T04:09:52.713Z,3.70
2019-02-25T04:11:56.813Z,3.70
2019-02-25T04:14:02.151Z,3.50
2019-02-25T04:16:06.742Z,3.40
2019-02-25T04:18:10.664Z,3.40
2019-02-25T04:20:15.176Z,3.20
2019-02-25T04:22:19.375Z,3.20
2019-02-25T04:24:23.672Z,3.40
2019-02-25T04:26:27.792Z,3.30
2019-02-25T04:28:31.653Z,3.40
2019-02-25T04:30:35.915Z,3.50
2019-02-25T04:32:39.737Z,3.30
2019-02-25T04:34:44.127Z,3.30
2019-02-25T04:36:49.530Z,3.40
2019-02-25T04:38:54.550Z,3.30
2019-02-25T04:40:58.920Z,3.10
2019-02-25T04:43:02.759Z,3.00
2019-02-25T04:45:09.655Z,3.00
2019-02-25T04:47:14.123Z,2.90
2019-02-25T04:49:18.494Z,2.90
2019-02-25T04:51:23.297Z,2.80
2019-02-25T04:53:27.132Z,2.90
2019-02-25T04:55:30.971Z,3.00
2019-02-25T04:57:34.873Z,3.20
2019-02-25T04:59:39.251Z,3.40
2019-02-25T05:01:43.092Z,3.30
2019-02-25T05:03:47.764Z,3.10
2019-02-25T05:05:52.490Z,3.00
2019-02-25T05:07:56.671Z,3.00
2019-02-25T05:10:01.160Z,3.00
2019-02-25T05:12:05.928Z,3.00
2019-02-25T05:14:09.826Z,3.10
2019-02-25T05:16:14.555Z,3.00
2019-02-25T05:18:18.475Z,3.00
2019-02-25T05:20:23.047Z,3.00
2019-02-25T05:22:27.595Z,3.00
2019-02-25T05:24:31.439Z,2.80
2019-02-25T05:26:35.358Z,2.90
2019-02-25T05:28:39.483Z,3.00
2019-02-25T05:30:43.716Z,2.90
2019-02-25T05:32:48.391Z,3.10
2019-02-25T05:34:52.496Z,3.10
2019-02-25T05:36:56.396Z,3.10
2019-02-25T05:39:00.237Z,3.10
2019-02-25T05:41:05.692Z,3.10
2019-02-25T05:43:09.589Z,3.30
2019-02-25T05:45:14.120Z,3.10
2019-02-25T05:47:18.524Z,3.00
2019-02-25T05:49:22.693Z,2.90
2019-02-25T05:51:27.640Z,2.60
2019-02-25T05:53:31.799Z,2.60
2019-02-25T05:55:35.956Z,2.50
2019-02-25T05:57:40.347Z,2.50
2019-02-25T05:59:44.902Z,2.50
2019-02-25T06:01:48.879Z,2.60
2019-02-25T06:03:53.255Z,2.60
2019-02-25T06:05:57.895Z,2.60
2019-02-25T06:08:02.363Z,2.60
2019-02-25T06:10:07.486Z,2.60
2019-02-25T06:12:11.768Z,2.50
2019-02-25T06:14:15.600Z,2.60
2019-02-25T06:16:19.431Z,2.60
2019-02-25T06:18:23.608Z,2.50
2019-02-25T06:20:27.696Z,2.40
2019-02-25T06:22:51.303Z,2.40
2019-02-25T06:25:14.502Z,2.40
2019-02-25T06:27:37.706Z,2.60
2019-02-25T06:30:01.395Z,2.50
2019-02-25T06:32:25.063Z,2.70
2019-02-25T06:34:48.136Z,2.80
2019-02-25T06:37:11.226Z,3.00
2019-02-25T06:42:03.693Z,3.00
2019-02-25T06:44:27.247Z,2.90
2019-02-25T06:46:50.983Z,2.90
2019-02-25T06:49:26.583Z,3.00
2019-02-25T06:51:39.739Z,2.80
2019-02-25T06:53:55.115Z,2.60
2019-02-25T06:56:10.587Z,2.50
2019-02-25T06:58:26.177Z,2.70
2019-02-25T07:00:40.615Z,2.90
2019-02-25T07:03:04.333Z,3.10
2019-02-25T07:05:46.478Z,3.10
2019-02-25T07:08:15.684Z,3.20
2019-02-25T07:10:57.935Z,3.30
2019-02-25T07:13:40.520Z,3.40
2019-02-25T07:16:22.916Z,3.40
2019-02-25T07:19:05.130Z,3.50
2019-02-25T07:24:31.733Z,3.60
2019-02-25T07:27:05.155Z,3.60
2019-02-25T07:29:47.404Z,3.60
2019-02-25T07:32:30.279Z,3.70
2019-02-25T07:35:12.567Z,3.70
2019-02-25T07:37:55.199Z,3.80
2019-02-25T07:40:37.359Z,4.00
2019-02-25T07:43:19.571Z,4.10
2019-02-25T07:45:50.055Z,4.10
2019-02-25T07:48:32.183Z,4.00
2019-02-25T07:51:14.419Z,4.00
2019-02-25T07:53:39.539Z,4.10
2019-02-25T07:56:14.112Z,4.20
2019-02-25T07:58:48.509Z,4.20
2019-02-25T08:01:18.500Z,4.30
2019-02-25T08:03:53.379Z,4.30
2019-02-25T08:06:21.083Z,4.50
2019-02-25T08:08:50.063Z,4.40
2019-02-25T08:11:18.852Z,4.50
2019-02-25T08:16:50.331Z,4.50
2019-02-25T08:19:31.099Z,4.80
2019-02-25T08:21:58.040Z,4.90
2019-02-25T08:24:38.989Z,5.00
2019-02-25T08:27:14.300Z,5.00
2019-02-25T08:29:52.088Z,5.20
2019-02-25T08:32:24.428Z,5.10
2019-02-25T08:34:59.287Z,5.30
2019-02-25T08:37:34.450Z,5.40
2019-02-25T08:40:01.642Z,5.50
2019-02-25T08:42:23.422Z,5.60
2019-02-25T08:44:50.580Z,5.80
2019-02-25T08:47:08.434Z,5.90
2019-02-25T08:49:31.185Z,6.20
2019-02-25T08:51:35.355Z,6.30
2019-02-25T08:53:39.948Z,6.40
2019-02-25T08:55:44.959Z,6.50
2019-02-25T08:57:50.183Z,6.60
2019-02-25T08:59:54.217Z,6.70
2019-02-25T09:01:58.510Z,6.80
2019-02-25T09:04:02.948Z,6.90
2019-02-25T09:06:07.567Z,7.00
2019-02-25T09:08:11.960Z,7.20
2019-02-25T09:10:17.015Z,7.20
2019-02-25T09:12:21.689Z,7.10
2019-02-25T09:14:25.819Z,7.20
2019-02-25T09:16:30.628Z,7.30
2019-02-25T09:18:35.066Z,7.40
2019-02-25T09:20:39.359Z,7.50
2019-02-25T09:22:44.287Z,7.60
2019-02-25T09:24:48.394Z,7.70
2019-02-25T09:26:52.743Z,7.90
2019-02-25T09:28:57.340Z,8.10
2019-02-25T09:31:01.883Z,8.20
2019-02-25T09:33:05.842Z,8.30
2019-02-25T09:35:09.863Z,8.40
2019-02-25T09:37:14.237Z,8.40
2019-02-25T09:39:18.625Z,8.50
2019-02-25T09:41:29.636Z,8.50
2019-02-25T09:43:28.843Z,8.50
2019-02-25T09:45:33.107Z,8.70
2019-02-25T09:47:37.325Z,8.70
2019-02-25T09:49:42.192Z,8.70
2019-02-25T09:51:46.562Z,8.80
2019-02-25T09:53:51.243Z,8.70
2019-02-25T09:55:55.994Z,8.80
2019-02-25T09:58:00.356Z,8.80
2019-02-25T10:00:04.659Z,8.90
2019-02-25T10:02:09.048Z,9.00
2019-02-25T10:04:13.913Z,9.10
2019-02-25T10:06:17.905Z,9.10
2019-02-25T10:08:22.535Z,9.20
2019-02-25T10:10:26.723Z,9.30
2019-02-25T10:12:30.827Z,9.40
2019-02-25T10:14:35.264Z,9.60
2019-02-25T10:16:39.364Z,9.50
2019-02-25T10:18:43.987Z,9.60
2019-02-25T10:20:48.103Z,9.60
2019-02-25T10:22:52.615Z,9.60
2019-02-25T10:24:57.562Z,9.70
2019-02-25T10:27:02.240Z,9.80
2019-02-25T10:29:06.587Z,10.00
2019-02-25T10:31:12.732Z,10.20
2019-02-25T10:33:16.589Z,10.10
2019-02-25T10:35:21.263Z,10.20
2019-02-25T10:37:25.229Z,10.30
2019-02-25T10:39:29.931Z,10.50
2019-02-25T10:41:34.603Z,10.60
2019-02-25T10:43:38.556Z,10.80
2019-02-25T10:45:43.407Z,10.80
2019-02-25T10:47:49.489Z,10.90
2019-02-25T10:49:54.066Z,10.90
2019-02-25T10:51:58.284Z,10.90
2019-02-25T10:54:02.488Z,10.90
2019-02-25T10:56:34.117Z,10.90
2019-02-25T10:58:38.071Z,11.10
2019-02-25T11:00:43.657Z,11.20
2019-02-25T11:02:49.476Z,11.30
2019-02-25T11:04:55.629Z,11.40
2019-02-25T11:07:00.869Z,11.50
2019-02-25T11:09:26.206Z,11.50
2019-02-25T11:11:33.893Z,11.40
2019-02-25T11:13:38.465Z,11.50
2019-02-25T11:15:44.581Z,11.60
2019-02-25T11:17:49.675Z,11.50
2019-02-25T11:19:56.615Z,11.60
2019-02-25T11:22:00.815Z,11.70
2019-02-25T11:24:05.366Z,11.70
2019-02-25T11:26:10.527Z,11.90
2019-02-25T11:28:24.849Z,11.90
2019-02-25T11:30:23.780Z,12.10
2019-02-25T11:32:28.233Z,12.10
2019-02-25T11:34:33.667Z,12.20
2019-02-25T11:36:38.107Z,12.20
2019-02-25T11:38:42.856Z,12.20
2019-02-25T11:40:47.374Z,12.20
2019-02-25T11:42:51.609Z,12.10
2019-02-25T11:44:57.106Z,12.40
2019-02-25T11:47:01.644Z,13.00
2019-02-25T11:49:05.707Z,14.00
2019-02-25T11:51:10.739Z,14.80
2019-02-25T11:53:15.522Z,15.70
2019-02-25T11:55:21.903Z,16.30
2019-02-25T11:57:26.753Z,16.30
2019-02-25T11:59:30.835Z,16.50
2019-02-25T12:01:35.251Z,16.40
2019-02-25T12:03:40.190Z,16.30
2019-02-25T12:05:45.086Z,16.40
2019-02-25T12:07:49.270Z,17.00
2019-02-25T12:09:53.730Z,17.20
2019-02-25T12:11:58.239Z,16.60
2019-02-25T12:14:02.723Z,16.90
2019-02-25T12:16:06.978Z,17.20
2019-02-25T12:18:11.373Z,16.80
2019-02-25T12:20:16.406Z,17.00
2019-02-25T12:22:20.901Z,17.40
2019-02-25T12:24:25.335Z,17.70
2019-02-25T12:26:29.465Z,17.90
2019-02-25T12:28:33.885Z,17.90
2019-02-25T12:30:38.252Z,17.90
2019-02-25T12:32:42.260Z,17.70
2019-02-25T12:34:46.634Z,18.20
2019-02-25T12:36:50.799Z,18.20
2019-02-25T12:38:54.736Z,17.80
2019-02-25T12:40:58.933Z,17.90
2019-02-25T12:43:03.495Z,17.30
2019-02-25T12:45:08.368Z,17.10
2019-02-25T12:47:12.847Z,16.70
2019-02-25T12:49:17.188Z,16.80
2019-02-25T12:51:21.730Z,16.50
2019-02-25T12:53:26.159Z,16.60
2019-02-25T12:55:29.997Z,16.60
2019-02-25T12:57:34.087Z,16.70
2019-02-25T12:59:37.999Z,16.80
2019-02-25T13:01:42.613Z,17.30
2019-02-25T13:03:46.704Z,17.00
2019-02-25T13:05:50.776Z,17.50
2019-02-25T13:07:54.991Z,17.80
2019-02-25T13:09:58.826Z,17.60
2019-02-25T13:12:03.243Z,17.40
2019-02-25T13:14:07.325Z,17.60
2019-02-25T13:16:11.912Z,17.30
2019-02-25T13:18:16.956Z,17.70
2019-02-25T13:20:21.666Z,18.10
2019-02-25T13:22:26.277Z,18.10
2019-02-25T13:24:32.566Z,18.10
2019-02-25T13:26:37.507Z,17.90
2019-02-25T13:28:42.563Z,18.30
2019-02-25T13:30:46.923Z,18.10
2019-02-25T13:32:51.394Z,18.10
2019-02-25T13:34:55.963Z,18.60
2019-02-25T13:37:00.459Z,18.00
2019-02-25T13:39:07.066Z,17.90
2019-02-25T13:41:12.056Z,18.10
2019-02-25T13:43:16.130Z,17.50
2019-02-25T13:45:19.971Z,17.40
2019-02-25T13:47:24.312Z,17.20
2019-02-25T13:49:28.892Z,17.30
2019-02-25T13:51:33.087Z,17.50
2019-02-25T13:53:37.523Z,17.50
2019-02-25T13:55:42.053Z,18.20
2019-02-25T13:57:46.287Z,17.60
2019-02-25T13:59:50.271Z,17.70
2019-02-25T14:01:54.983Z,17.40
2019-02-25T14:03:59.550Z,17.20
2019-02-25T14:06:04.010Z,17.20
2019-02-25T14:08:08.698Z,17.20
2019-02-25T14:10:13.508Z,17.40
2019-02-25T14:12:17.499Z,17.60
2019-02-25T14:14:21.655Z,17.40
2019-02-25T14:16:25.667Z,17.00
2019-02-25T14:18:30.464Z,17.40
2019-02-25T14:20:34.447Z,17.30
2019-02-25T14:22:41.618Z,17.20
2019-02-25T14:24:46.022Z,17.20
2019-02-25T14:26:50.360Z,17.10
2019-02-25T14:28:55.023Z,16.80
2019-02-25T14:30:59.714Z,16.50
2019-02-25T14:33:03.671Z,16.60
2019-02-25T14:35:08.107Z,16.70
2019-02-25T14:37:13.515Z,17.00
2019-02-25T14:39:27.690Z,17.20
2019-02-25T14:41:28.755Z,17.10
2019-02-25T14:43:36.711Z,16.60
2019-02-25T14:45:42.040Z,16.60
2019-02-25T14:47:46.982Z,16.40
2019-02-25T14:49:51.702Z,16.60
2019-02-25T14:51:56.659Z,16.80
2019-02-25T14:54:01.507Z,16.80
2019-02-25T14:56:05.816Z,17.20
2019-02-25T14:58:12.444Z,17.30
2019-02-25T15:00:23.354Z,17.60
2019-02-25T15:02:26.632Z,17.80
2019-02-25T15:04:30.831Z,17.70
2019-02-25T15:06:36.530Z,17.40
2019-02-25T15:08:40.649Z,17.20
2019-02-25T15:10:45.347Z,17.10
2019-02-25T15:12:53.768Z,17.20
2019-02-25T15:14:55.733Z,17.10
2019-02-25T15:17:00.519Z,17.50
2019-02-25T15:19:05.563Z,17.50
2019-02-25T15:21:11.296Z,17.90
2019-02-25T15:23:17.190Z,17.80
2019-02-25T15:25:22.747Z,17.60
2019-02-25T15:27:27.423Z,17.50
2019-02-25T15:29:31.611Z,17.00
2019-02-25T15:31:35.811Z,17.20
2019-02-25T15:33:42.376Z,17.40
2019-02-25T15:35:47.293Z,17.30
2019-02-25T15:37:53.042Z,17.20
2019-02-25T15:39:58.250Z,17.20
2019-02-25T15:42:03.003Z,17.20
2019-02-25T15:44:08.989Z,16.70
2019-02-25T15:46:14.558Z,16.70
2019-02-25T15:48:20.719Z,16.70
2019-02-25T15:50:24.714Z,16.90
2019-02-25T15:52:33.435Z,17.00
2019-02-25T15:54:35.015Z,16.70
2019-02-25T15:56:41.068Z,16.50
2019-02-25T15:58:47.167Z,16.40
2019-02-25T16:00:51.484Z,16.70
2019-02-25T16:02:56.339Z,16.70
2019-02-25T16:05:00.999Z,16.60
2019-02-25T16:07:08.410Z,16.70
2019-02-25T16:09:17.049Z,17.10
2019-02-25T16:11:25.664Z,16.90
2019-02-25T16:13:28.030Z,16.50
2019-02-25T16:15:32.111Z,16.30
2019-02-25T16:17:37.679Z,16.10
2019-02-25T16:19:47.382Z,15.70
2019-02-25T16:21:47.499Z,15.70
2019-02-25T16:23:51.555Z,15.50
2019-02-25T16:25:56.909Z,15.10
2019-02-25T16:28:01.523Z,14.90
2019-02-25T16:30:06.718Z,15.00
2019-02-25T16:32:11.079Z,15.00
2019-02-25T16:34:16.383Z,14.90
2019-02-25T16:36:21.913Z,14.70
2019-02-25T16:38:29.469Z,14.40
2019-02-25T16:40:35.557Z,14.10
2019-02-25T16:42:41.393Z,13.80
2019-02-25T16:44:45.740Z,13.50
2019-02-25T16:46:50.803Z,13.40
2019-02-25T16:48:55.487Z,13.20
2019-02-25T16:51:02.720Z,13.10
2019-02-25T16:53:08.558Z,13.10
2019-02-25T16:55:15.536Z,13.00
2019-02-25T16:57:21.243Z,13.00
2019-02-25T16:59:26.732Z,12.90
2019-02-25T17:01:34.115Z,12.80
2019-02-25T17:03:39.799Z,12.70
2019-02-25T17:05:45.662Z,12.60
2019-02-25T17:07:49.904Z,12.60
2019-02-25T17:09:55.021Z,12.50
2019-02-25T17:12:02.300Z,12.40
2019-02-25T17:14:06.810Z,12.40
2019-02-25T17:16:18.177Z,12.40
2019-02-25T17:18:17.328Z,12.30
2019-02-25T17:20:22.429Z,12.20
2019-02-25T17:22:26.551Z,12.20
2019-02-25T17:24:32.516Z,12.20
2019-02-25T17:26:39.075Z,12.10
2019-02-25T17:28:43.043Z,11.90
2019-02-25T17:30:47.915Z,12.00
2019-02-25T17:32:53.670Z,11.90
2019-02-25T17:34:58.643Z,11.80
2019-02-25T17:37:05.856Z,11.80
2019-02-25T17:39:11.353Z,11.70
2019-02-25T17:41:16.292Z,11.70
2019-02-25T17:43:20.990Z,11.60
2019-02-25T17:45:27.701Z,11.70
2019-02-25T17:47:33.191Z,11.60
2019-02-25T17:49:38.048Z,11.60
2019-02-25T17:51:43.330Z,11.50
2019-02-25T17:53:50.239Z,11.50
2019-02-25T17:55:55.434Z,11.40
2019-02-25T17:58:01.059Z,11.40
2019-02-25T18:00:09.029Z,11.30
2019-02-25T18:02:13.858Z,11.20
2019-02-25T18:04:18.139Z,11.20
2019-02-25T18:06:26.946Z,11.10
2019-02-25T18:08:30.191Z,11.10
2019-02-25T18:10:34.763Z,11.10
2019-02-25T18:12:41.404Z,11.10
2019-02-25T18:14:47.364Z,11.00
2019-02-25T18:16:51.680Z,11.00
2019-02-25T18:18:56.897Z,10.80
2019-02-25T18:21:01.252Z,10.80
2019-02-25T18:23:24.495Z,10.80
2019-02-25T18:25:28.476Z,10.70
2019-02-25T18:27:34.832Z,10.70
2019-02-25T18:29:38.831Z,10.60
2019-02-25T18:31:44.916Z,10.50
2019-02-25T18:33:51.112Z,10.40
2019-02-25T18:35:55.047Z,10.40
2019-02-25T18:38:00.821Z,10.50
2019-02-25T18:40:05.777Z,10.40
2019-02-25T18:42:15.801Z,10.30
2019-02-25T18:44:19.903Z,10.30
2019-02-25T18:46:25.529Z,10.30
2019-02-25T18:48:30.494Z,10.30
2019-02-25T18:50:35.723Z,10.20
2019-02-25T18:52:39.947Z,10.10
2019-02-25T18:54:45.379Z,10.20
2019-02-25T18:56:51.339Z,10.20
2019-02-25T18:59:07.345Z,10.10
2019-02-25T19:01:03.863Z,10.00
2019-02-25T19:03:08.303Z,9.90
2019-02-25T19:05:14.051Z,9.90
2019-02-25T19:07:18.581Z,9.80
2019-02-25T19:09:23.894Z,9.70
2019-02-25T19:11:28.795Z,9.70
2019-02-25T19:13:32.891Z,9.70
2019-02-25T19:15:37.470Z,9.70
2019-02-25T19:17:43.618Z,9.50
2019-02-25T19:19:51.548Z,9.40
2019-02-25T19:21:56.182Z,9.50
2019-02-25T19:24:03.255Z,9.50
2019-02-25T19:26:08.178Z,9.40
2019-02-25T19:28:16.503Z,9.40
2019-02-25T19:30:19.750Z,9.30
2019-02-25T19:32:24.047Z,9.10
2019-02-25T19:34:29.286Z,9.20
2019-02-25T19:36:36.685Z,9.20
2019-02-25T19:38:41.921Z,9.10
2019-02-25T19:40:49.913Z,9.10
2019-02-25T19:42:53.939Z,9.00
2019-02-25T19:45:00.189Z,9.00
2019-02-25T19:47:04.339Z,9.00
2019-02-25T19:49:09.244Z,9.00
2019-02-25T19:51:14.649Z,8.90
2019-02-25T19:53:20.249Z,8.80
2019-02-25T19:55:24.359Z,8.70
2019-02-25T19:57:30.253Z,8.70
2019-02-25T19:59:35.043Z,8.70
2019-02-25T20:01:39.423Z,8.80
2019-02-25T20:03:45.190Z,8.70
2019-02-25T20:05:51.388Z,8.70
2019-02-25T20:07:56.226Z,8.60
2019-02-25T20:10:00.291Z,8.50
2019-02-25T20:12:04.322Z,8.60
2019-02-25T20:14:08.447Z,8.40
2019-02-25T20:16:15.849Z,8.30
2019-02-25T20:18:18.567Z,8.20
2019-02-25T20:20:23.261Z,8.20
2019-02-25T20:22:27.819Z,8.10
2019-02-25T20:24:32.115Z,8.10
2019-02-25T20:26:36.191Z,8.30
2019-02-25T20:28:41.745Z,8.20
2019-02-25T20:30:46.891Z,8.10
2019-02-25T20:32:51.832Z,8.10
2019-02-25T20:34:57.195Z,7.90
2019-02-25T20:37:03.943Z,7.90
2019-02-25T20:39:08.883Z,7.80
2019-02-25T20:41:15.983Z,7.90
2019-02-25T20:43:21.283Z,7.80
2019-02-25T20:45:25.235Z,7.70
2019-02-25T20:47:29.942Z,7.70
2019-02-25T20:49:34.584Z,7.70
2019-02-25T20:51:38.883Z,7.70
2019-02-25T20:53:42.955Z,7.70
2019-02-25T20:55:48.221Z,7.60
2019-02-25T20:57:53.372Z,7.50
2019-02-25T20:59:57.520Z,7.60
2019-02-25T21:02:01.734Z,7.50
2019-02-25T21:04:08.810Z,7.50
2019-02-25T21:06:12.757Z,7.60
2019-02-25T21:08:21.223Z,7.60
2019-02-25T21:10:27.359Z,7.60
2019-02-25T21:12:31.125Z,7.50
2019-02-25T21:14:35.665Z,7.50
2019-02-25T21:16:41.523Z,7.30
2019-02-25T21:18:46.646Z,7.10
2019-02-25T21:20:53.750Z,7.30
2019-02-25T21:23:02.870Z,7.50
2019-02-25T21:25:04.885Z,7.30
2019-02-25T21:27:10.815Z,7.10
2019-02-25T21:29:15.181Z,7.10
2019-02-25T21:31:21.385Z,7.10
2019-02-25T21:33:27.726Z,7.10
2019-02-25T21:35:36.640Z,7.20
2019-02-25T21:37:37.875Z,6.90
2019-02-25T21:39:42.825Z,7.00
2019-02-25T21:41:48.434Z,7.10
2019-02-25T21:43:54.084Z,7.20
2019-02-25T21:46:01.278Z,7.40
2019-02-25T21:48:05.665Z,7.50
2019-02-25T21:50:12.218Z,7.50
2019-02-25T21:52:17.585Z,7.40
2019-02-25T21:54:21.938Z,7.30
2019-02-25T21:56:27.069Z,6.90
2019-02-25T21:58:32.287Z,6.90
2019-02-25T22:00:40.220Z,6.90
2019-02-25T22:02:50.931Z,6.80
2019-02-25T22:04:55.068Z,6.70
2019-02-25T22:07:00.863Z,6.60
2019-02-25T22:09:08.097Z,6.50
2019-02-25T22:11:16.773Z,6.40
2019-02-25T22:13:20.749Z,6.40
2019-02-25T22:15:25.331Z,6.40
2019-02-25T22:17:29.263Z,6.30
2019-02-25T22:19:35.109Z,6.30
2019-02-25T22:21:39.872Z,6.30
2019-02-25T22:23:44.304Z,6.40
2019-02-25T22:25:49.059Z,6.20
2019-02-25T22:27:53.634Z,6.00
2019-02-25T22:29:59.917Z,6.00
2019-02-25T22:32:06.343Z,6.30
2019-02-25T22:34:12.947Z,6.30
2019-02-25T22:36:17.142Z,6.20
2019-02-25T22:38:21.396Z,6.00
2019-02-25T22:40:27.792Z,6.00
2019-02-25T22:42:33.954Z,5.80
2019-02-25T22:44:39.263Z,5.80
2019-02-25T22:46:44.243Z,5.80
2019-02-25T22:48:48.770Z,5.70
2019-02-25T22:50:55.274Z,5.80
2019-02-25T22:53:01.060Z,5.80
2019-02-25T22:55:07.904Z,5.70
2019-02-25T22:57:10.448Z,5.60
2019-02-25T22:59:14.747Z,5.50
2019-02-25T23:01:19.270Z,5.70
2019-02-25T23:03:25.776Z,5.70
2019-02-25T23:05:29.729Z,5.70
2019-02-25T23:07:38.844Z,5.80
2019-02-25T23:09:41.361Z,5.80
2019-02-25T23:11:48.201Z,5.80
2019-02-25T23:13:54.330Z,5.90
2019-02-25T23:15:58.005Z,5.90
2019-02-25T23:18:05.312Z,6.00
2019-02-25T23:20:09.372Z,6.10
2019-02-25T23:22:13.812Z,6.30
2019-02-25T23:24:17.999Z,6.10
2019-02-25T23:26:22.580Z,5.90
2019-02-25T23:28:28.601Z,5.60
2019-02-25T23:30:33.238Z,5.50
2019-02-25T23:32:39.347Z,5.50
2019-02-25T23:34:44.912Z,5.50
2019-02-25T23:36:49.800Z,5.40
2019-02-25T23:38:57.022Z,5.50
2019-02-25T23:41:05.278Z,5.50
2019-02-25T23:43:09.574Z,5.50
2019-02-25T23:45:15.518Z,5.70
2019-02-25T23:47:20.172Z,5.70
2019-02-25T23:49:27.223Z,5.90
2019-02-25T23:51:30.535Z,6.00
2019-02-25T23:53:35.145Z,6.00
2019-02-25T23:55:43.156Z,5.90
2019-02-25T23:57:46.488Z,5.70
2019-02-25T23:59:51.633Z,5.70
